sensor_id;sensor_type;location;lat;lon;timestamp;P1;durP1;ratioP1;P2;durP2;ratioP2
37241;SDS011;23135;51.078;12.108;2024-01-30T00:02:14;11.63;;;1.60;;
37241;SDS011;23135;51.078;12.108;2024-01-30T00:04:40;7.32;;;1.45;;
37241;SDS011;23135;51.078;12.108;2024-01-30T00:07:05;6.18;;;1.38;;
37241;SDS011;23135;51.078;12.108;2024-01-30T00:09:31;3.13;;;1.15;;
37241;SDS011;23135;51.078;12.108;2024-01-30T00:11:57;2.30;;;1.17;;
37241;SDS011;23135;51.078;12.108;2024-01-30T00:14:22;2.80;;;0.80;;
37241;SDS011;23135;51.078;12.108;2024-01-30T00:16:48;5.53;;;1.63;;
37241;SDS011;23135;51.078;12.108;2024-01-30T00:19:13;10.40;;;1.42;;
37241;SDS011;23135;51.078;12.108;2024-01-30T00:21:39;5.70;;;1.75;;
37241;SDS011;23135;51.078;12.108;2024-01-30T00:24:05;3.20;;;1.30;;
37241;SDS011;23135;51.078;12.108;2024-01-30T00:26:30;3.85;;;1.67;;
37241;SDS011;23135;51.078;12.108;2024-01-30T00:28:56;5.05;;;0.98;;
37241;SDS011;23135;51.078;12.108;2024-01-30T00:31:21;4.38;;;1.20;;
37241;SDS011;23135;51.078;12.108;2024-01-30T00:33:47;2.75;;;1.20;;
37241;SDS011;23135;51.078;12.108;2024-01-30T00:36:12;5.43;;;1.77;;
37241;SDS011;23135;51.078;12.108;2024-01-30T00:38:38;2.05;;;1.13;;
37241;SDS011;23135;51.078;12.108;2024-01-30T00:41:05;5.35;;;1.95;;
37241;SDS011;23135;51.078;12.108;2024-01-30T00:43:32;6.35;;;1.67;;
37241;SDS011;23135;51.078;12.108;2024-01-30T00:45:58;4.47;;;1.10;;
37241;SDS011;23135;51.078;12.108;2024-01-30T00:48:24;4.38;;;1.00;;
37241;SDS011;23135;51.078;12.108;2024-01-30T00:50:50;4.60;;;1.30;;
37241;SDS011;23135;51.078;12.108;2024-01-30T00:53:15;5.32;;;1.60;;
37241;SDS011;23135;51.078;12.108;2024-01-30T00:55:41;7.68;;;2.15;;
37241;SDS011;23135;51.078;12.108;2024-01-30T00:58:06;3.40;;;1.10;;
37241;SDS011;23135;51.078;12.108;2024-01-30T01:00:32;6.22;;;0.57;;
37241;SDS011;23135;51.078;12.108;2024-01-30T01:02:58;5.00;;;1.63;;
37241;SDS011;23135;51.078;12.108;2024-01-30T01:05:24;6.15;;;2.03;;
37241;SDS011;23135;51.078;12.108;2024-01-30T01:07:50;3.85;;;1.27;;
37241;SDS011;23135;51.078;12.108;2024-01-30T01:10:18;3.45;;;1.40;;
37241;SDS011;23135;51.078;12.108;2024-01-30T01:12:45;4.45;;;1.45;;
37241;SDS011;23135;51.078;12.108;2024-01-30T01:15:11;5.38;;;2.08;;
37241;SDS011;23135;51.078;12.108;2024-01-30T01:17:37;9.18;;;1.27;;
37241;SDS011;23135;51.078;12.108;2024-01-30T01:20:03;2.83;;;0.82;;
37241;SDS011;23135;51.078;12.108;2024-01-30T01:22:33;4.20;;;0.85;;
37241;SDS011;23135;51.078;12.108;2024-01-30T01:24:59;6.75;;;1.63;;
37241;SDS011;23135;51.078;12.108;2024-01-30T01:27:25;4.20;;;1.77;;
37241;SDS011;23135;51.078;12.108;2024-01-30T01:29:51;5.82;;;1.48;;
37241;SDS011;23135;51.078;12.108;2024-01-30T01:32:17;4.65;;;1.95;;
37241;SDS011;23135;51.078;12.108;2024-01-30T01:34:43;2.10;;;0.85;;
37241;SDS011;23135;51.078;12.108;2024-01-30T01:37:08;6.53;;;1.58;;
37241;SDS011;23135;51.078;12.108;2024-01-30T01:39:34;7.82;;;1.27;;
37241;SDS011;23135;51.078;12.108;2024-01-30T01:42:00;14.88;;;2.00;;
37241;SDS011;23135;51.078;12.108;2024-01-30T01:44:25;6.20;;;1.55;;
37241;SDS011;23135;51.078;12.108;2024-01-30T01:46:51;3.83;;;1.63;;
37241;SDS011;23135;51.078;12.108;2024-01-30T01:49:18;3.03;;;1.17;;
37241;SDS011;23135;51.078;12.108;2024-01-30T01:51:44;3.63;;;1.42;;
37241;SDS011;23135;51.078;12.108;2024-01-30T01:54:12;3.85;;;1.73;;
37241;SDS011;23135;51.078;12.108;2024-01-30T01:56:39;12.93;;;2.40;;
37241;SDS011;23135;51.078;12.108;2024-01-30T01:59:06;5.43;;;1.45;;
37241;SDS011;23135;51.078;12.108;2024-01-30T02:01:33;4.63;;;1.80;;
37241;SDS011;23135;51.078;12.108;2024-01-30T02:04:00;4.20;;;1.67;;
37241;SDS011;23135;51.078;12.108;2024-01-30T02:06:26;5.00;;;1.73;;
37241;SDS011;23135;51.078;12.108;2024-01-30T02:08:52;10.38;;;2.33;;
37241;SDS011;23135;51.078;12.108;2024-01-30T02:11:19;10.68;;;3.45;;
37241;SDS011;23135;51.078;12.108;2024-01-30T02:13:45;10.02;;;3.03;;
37241;SDS011;23135;51.078;12.108;2024-01-30T02:16:11;14.80;;;3.88;;
37241;SDS011;23135;51.078;12.108;2024-01-30T02:18:36;10.55;;;2.83;;
37241;SDS011;23135;51.078;12.108;2024-01-30T02:21:06;8.68;;;2.63;;
37241;SDS011;23135;51.078;12.108;2024-01-30T02:23:33;8.80;;;1.50;;
37241;SDS011;23135;51.078;12.108;2024-01-30T02:25:59;4.88;;;1.48;;
37241;SDS011;23135;51.078;12.108;2024-01-30T02:28:25;4.25;;;1.25;;
37241;SDS011;23135;51.078;12.108;2024-01-30T02:30:51;3.53;;;1.27;;
37241;SDS011;23135;51.078;12.108;2024-01-30T02:33:16;5.70;;;1.23;;
37241;SDS011;23135;51.078;12.108;2024-01-30T02:35:42;3.72;;;1.75;;
37241;SDS011;23135;51.078;12.108;2024-01-30T02:38:07;4.50;;;1.10;;
37241;SDS011;23135;51.078;12.108;2024-01-30T02:40:33;5.05;;;1.85;;
37241;SDS011;23135;51.078;12.108;2024-01-30T02:42:59;8.13;;;1.63;;
37241;SDS011;23135;51.078;12.108;2024-01-30T02:45:27;3.50;;;0.88;;
37241;SDS011;23135;51.078;12.108;2024-01-30T02:47:53;8.52;;;2.45;;
37241;SDS011;23135;51.078;12.108;2024-01-30T02:50:18;10.65;;;2.58;;
37241;SDS011;23135;51.078;12.108;2024-01-30T02:52:44;7.05;;;1.83;;
37241;SDS011;23135;51.078;12.108;2024-01-30T02:55:10;3.47;;;1.25;;
37241;SDS011;23135;51.078;12.108;2024-01-30T02:57:36;5.88;;;2.45;;
37241;SDS011;23135;51.078;12.108;2024-01-30T03:00:02;5.50;;;1.95;;
37241;SDS011;23135;51.078;12.108;2024-01-30T03:02:29;6.72;;;1.50;;
37241;SDS011;23135;51.078;12.108;2024-01-30T03:04:54;4.90;;;1.83;;
37241;SDS011;23135;51.078;12.108;2024-01-30T03:07:20;7.20;;;2.47;;
37241;SDS011;23135;51.078;12.108;2024-01-30T03:09:46;6.97;;;1.92;;
37241;SDS011;23135;51.078;12.108;2024-01-30T03:12:11;8.23;;;3.13;;
37241;SDS011;23135;51.078;12.108;2024-01-30T03:14:37;5.28;;;2.58;;
37241;SDS011;23135;51.078;12.108;2024-01-30T03:17:02;5.03;;;2.17;;
37241;SDS011;23135;51.078;12.108;2024-01-30T03:19:28;5.18;;;2.28;;
37241;SDS011;23135;51.078;12.108;2024-01-30T03:21:54;6.88;;;1.20;;
37241;SDS011;23135;51.078;12.108;2024-01-30T03:24:19;6.00;;;1.88;;
37241;SDS011;23135;51.078;12.108;2024-01-30T03:26:45;6.20;;;1.42;;
37241;SDS011;23135;51.078;12.108;2024-01-30T03:29:11;3.40;;;1.80;;
37241;SDS011;23135;51.078;12.108;2024-01-30T03:31:36;4.35;;;1.88;;
37241;SDS011;23135;51.078;12.108;2024-01-30T03:34:02;8.63;;;2.60;;
37241;SDS011;23135;51.078;12.108;2024-01-30T03:36:27;4.57;;;2.00;;
37241;SDS011;23135;51.078;12.108;2024-01-30T03:38:53;7.55;;;2.17;;
37241;SDS011;23135;51.078;12.108;2024-01-30T03:41:19;4.43;;;1.25;;
37241;SDS011;23135;51.078;12.108;2024-01-30T03:43:45;4.10;;;1.75;;
37241;SDS011;23135;51.078;12.108;2024-01-30T03:46:11;5.68;;;2.10;;
37241;SDS011;23135;51.078;12.108;2024-01-30T03:48:37;9.55;;;1.88;;
37241;SDS011;23135;51.078;12.108;2024-01-30T03:51:04;3.75;;;1.58;;
37241;SDS011;23135;51.078;12.108;2024-01-30T03:53:29;4.65;;;2.05;;
37241;SDS011;23135;51.078;12.108;2024-01-30T03:55:55;4.55;;;2.08;;
37241;SDS011;23135;51.078;12.108;2024-01-30T03:58:21;2.95;;;2.05;;
37241;SDS011;23135;51.078;12.108;2024-01-30T04:00:46;6.03;;;2.00;;
37241;SDS011;23135;51.078;12.108;2024-01-30T04:03:12;3.70;;;1.45;;
37241;SDS011;23135;51.078;12.108;2024-01-30T04:05:37;4.32;;;1.55;;
37241;SDS011;23135;51.078;12.108;2024-01-30T04:08:04;2.40;;;1.13;;
37241;SDS011;23135;51.078;12.108;2024-01-30T04:10:29;5.00;;;1.60;;
37241;SDS011;23135;51.078;12.108;2024-01-30T04:12:55;5.60;;;2.40;;
37241;SDS011;23135;51.078;12.108;2024-01-30T04:15:21;6.05;;;2.33;;
37241;SDS011;23135;51.078;12.108;2024-01-30T04:17:46;6.50;;;1.52;;
37241;SDS011;23135;51.078;12.108;2024-01-30T04:20:15;5.55;;;2.53;;
37241;SDS011;23135;51.078;12.108;2024-01-30T04:22:44;5.05;;;1.73;;
37241;SDS011;23135;51.078;12.108;2024-01-30T04:25:10;4.65;;;1.65;;
37241;SDS011;23135;51.078;12.108;2024-01-30T04:27:39;5.95;;;2.13;;
37241;SDS011;23135;51.078;12.108;2024-01-30T04:30:04;7.30;;;2.22;;
37241;SDS011;23135;51.078;12.108;2024-01-30T04:32:31;5.45;;;1.98;;
37241;SDS011;23135;51.078;12.108;2024-01-30T04:34:57;4.00;;;1.77;;
37241;SDS011;23135;51.078;12.108;2024-01-30T04:37:23;8.02;;;3.58;;
37241;SDS011;23135;51.078;12.108;2024-01-30T04:39:49;8.23;;;2.45;;
37241;SDS011;23135;51.078;12.108;2024-01-30T04:42:14;10.23;;;3.20;;
37241;SDS011;23135;51.078;12.108;2024-01-30T04:44:40;13.38;;;3.55;;
37241;SDS011;23135;51.078;12.108;2024-01-30T04:47:05;6.47;;;2.00;;
37241;SDS011;23135;51.078;12.108;2024-01-30T04:49:33;4.22;;;2.80;;
37241;SDS011;23135;51.078;12.108;2024-01-30T04:51:59;6.20;;;2.78;;
37241;SDS011;23135;51.078;12.108;2024-01-30T04:54:25;9.35;;;3.05;;
37241;SDS011;23135;51.078;12.108;2024-01-30T04:56:50;13.95;;;3.92;;
37241;SDS011;23135;51.078;12.108;2024-01-30T04:59:16;6.40;;;2.40;;
37241;SDS011;23135;51.078;12.108;2024-01-30T05:01:41;7.32;;;3.05;;
37241;SDS011;23135;51.078;12.108;2024-01-30T05:04:07;5.75;;;2.40;;
37241;SDS011;23135;51.078;12.108;2024-01-30T05:06:34;11.43;;;2.60;;
37241;SDS011;23135;51.078;12.108;2024-01-30T05:08:59;6.15;;;2.50;;
37241;SDS011;23135;51.078;12.108;2024-01-30T05:11:25;6.93;;;2.22;;
37241;SDS011;23135;51.078;12.108;2024-01-30T05:13:50;6.35;;;2.63;;
37241;SDS011;23135;51.078;12.108;2024-01-30T05:16:16;7.75;;;3.22;;
37241;SDS011;23135;51.078;12.108;2024-01-30T05:18:41;4.28;;;1.95;;
37241;SDS011;23135;51.078;12.108;2024-01-30T05:21:07;7.55;;;2.05;;
37241;SDS011;23135;51.078;12.108;2024-01-30T05:23:33;6.45;;;2.05;;
37241;SDS011;23135;51.078;12.108;2024-01-30T05:25:59;4.20;;;1.30;;
37241;SDS011;23135;51.078;12.108;2024-01-30T05:28:26;5.35;;;1.42;;
37241;SDS011;23135;51.078;12.108;2024-01-30T05:30:51;6.55;;;2.83;;
37241;SDS011;23135;51.078;12.108;2024-01-30T05:33:17;12.55;;;2.85;;
37241;SDS011;23135;51.078;12.108;2024-01-30T05:35:43;6.05;;;1.92;;
37241;SDS011;23135;51.078;12.108;2024-01-30T05:38:08;5.97;;;2.53;;
37241;SDS011;23135;51.078;12.108;2024-01-30T05:40:34;5.38;;;2.85;;
37241;SDS011;23135;51.078;12.108;2024-01-30T05:42:59;7.22;;;2.50;;
37241;SDS011;23135;51.078;12.108;2024-01-30T05:45:26;8.40;;;2.92;;
37241;SDS011;23135;51.078;12.108;2024-01-30T05:47:52;6.88;;;2.28;;
37241;SDS011;23135;51.078;12.108;2024-01-30T05:50:18;7.43;;;3.35;;
37241;SDS011;23135;51.078;12.108;2024-01-30T05:52:44;10.10;;;1.83;;
37241;SDS011;23135;51.078;12.108;2024-01-30T05:55:11;3.83;;;1.50;;
37241;SDS011;23135;51.078;12.108;2024-01-30T05:57:37;7.18;;;3.00;;
37241;SDS011;23135;51.078;12.108;2024-01-30T06:00:03;5.15;;;1.85;;
37241;SDS011;23135;51.078;12.108;2024-01-30T06:02:30;5.55;;;1.58;;
37241;SDS011;23135;51.078;12.108;2024-01-30T06:04:56;6.00;;;1.75;;
37241;SDS011;23135;51.078;12.108;2024-01-30T06:07:21;4.20;;;1.88;;
37241;SDS011;23135;51.078;12.108;2024-01-30T06:09:47;6.97;;;2.78;;
37241;SDS011;23135;51.078;12.108;2024-01-30T06:12:13;8.32;;;2.97;;
37241;SDS011;23135;51.078;12.108;2024-01-30T06:14:38;5.28;;;2.25;;
37241;SDS011;23135;51.078;12.108;2024-01-30T06:17:04;11.38;;;2.55;;
37241;SDS011;23135;51.078;12.108;2024-01-30T06:19:30;3.97;;;2.15;;
37241;SDS011;23135;51.078;12.108;2024-01-30T06:21:56;4.28;;;2.10;;
37241;SDS011;23135;51.078;12.108;2024-01-30T06:24:21;6.40;;;1.90;;
37241;SDS011;23135;51.078;12.108;2024-01-30T06:26:47;6.20;;;2.05;;
37241;SDS011;23135;51.078;12.108;2024-01-30T06:29:12;7.47;;;2.47;;
37241;SDS011;23135;51.078;12.108;2024-01-30T06:31:42;7.63;;;1.88;;
37241;SDS011;23135;51.078;12.108;2024-01-30T06:34:08;5.60;;;2.05;;
37241;SDS011;23135;51.078;12.108;2024-01-30T06:36:35;5.85;;;2.10;;
37241;SDS011;23135;51.078;12.108;2024-01-30T06:39:01;5.22;;;1.75;;
37241;SDS011;23135;51.078;12.108;2024-01-30T06:41:27;5.95;;;2.05;;
37241;SDS011;23135;51.078;12.108;2024-01-30T06:43:53;5.18;;;1.92;;
37241;SDS011;23135;51.078;12.108;2024-01-30T06:46:18;4.90;;;2.38;;
37241;SDS011;23135;51.078;12.108;2024-01-30T06:48:44;8.10;;;1.80;;
37241;SDS011;23135;51.078;12.108;2024-01-30T06:51:10;4.55;;;0.88;;
37241;SDS011;23135;51.078;12.108;2024-01-30T06:53:37;7.10;;;1.73;;
37241;SDS011;23135;51.078;12.108;2024-01-30T06:56:02;5.78;;;2.63;;
37241;SDS011;23135;51.078;12.108;2024-01-30T06:58:28;7.55;;;2.70;;
37241;SDS011;23135;51.078;12.108;2024-01-30T07:00:54;4.40;;;2.03;;
37241;SDS011;23135;51.078;12.108;2024-01-30T07:03:20;5.22;;;2.13;;
37241;SDS011;23135;51.078;12.108;2024-01-30T07:05:46;7.82;;;2.25;;
37241;SDS011;23135;51.078;12.108;2024-01-30T07:08:12;5.78;;;1.65;;
37241;SDS011;23135;51.078;12.108;2024-01-30T07:10:37;6.57;;;2.70;;
37241;SDS011;23135;51.078;12.108;2024-01-30T07:13:03;6.78;;;2.30;;
37241;SDS011;23135;51.078;12.108;2024-01-30T07:15:31;7.28;;;1.60;;
37241;SDS011;23135;51.078;12.108;2024-01-30T07:17:57;10.00;;;2.28;;
37241;SDS011;23135;51.078;12.108;2024-01-30T07:20:23;2.65;;;1.25;;
37241;SDS011;23135;51.078;12.108;2024-01-30T07:22:48;3.85;;;1.25;;
37241;SDS011;23135;51.078;12.108;2024-01-30T07:25:14;8.38;;;1.95;;
37241;SDS011;23135;51.078;12.108;2024-01-30T07:27:40;4.80;;;1.48;;
37241;SDS011;23135;51.078;12.108;2024-01-30T07:30:06;5.20;;;2.08;;
37241;SDS011;23135;51.078;12.108;2024-01-30T07:32:32;6.20;;;1.52;;
37241;SDS011;23135;51.078;12.108;2024-01-30T07:34:57;6.97;;;2.15;;
37241;SDS011;23135;51.078;12.108;2024-01-30T07:37:23;5.50;;;1.73;;
37241;SDS011;23135;51.078;12.108;2024-01-30T07:39:49;7.65;;;2.83;;
37241;SDS011;23135;51.078;12.108;2024-01-30T07:42:15;7.15;;;1.73;;
37241;SDS011;23135;51.078;12.108;2024-01-30T07:44:41;10.18;;;2.20;;
37241;SDS011;23135;51.078;12.108;2024-01-30T07:47:06;4.57;;;1.50;;
37241;SDS011;23135;51.078;12.108;2024-01-30T07:49:32;8.65;;;2.10;;
37241;SDS011;23135;51.078;12.108;2024-01-30T07:51:58;3.95;;;1.77;;
37241;SDS011;23135;51.078;12.108;2024-01-30T07:54:24;5.78;;;1.70;;
37241;SDS011;23135;51.078;12.108;2024-01-30T07:56:50;3.53;;;1.63;;
37241;SDS011;23135;51.078;12.108;2024-01-30T07:59:15;5.57;;;1.65;;
37241;SDS011;23135;51.078;12.108;2024-01-30T08:01:41;6.07;;;2.55;;
37241;SDS011;23135;51.078;12.108;2024-01-30T08:04:07;5.45;;;1.58;;
37241;SDS011;23135;51.078;12.108;2024-01-30T08:06:32;8.98;;;2.70;;
37241;SDS011;23135;51.078;12.108;2024-01-30T08:08:58;6.20;;;1.75;;
37241;SDS011;23135;51.078;12.108;2024-01-30T08:11:24;5.78;;;1.67;;
37241;SDS011;23135;51.078;12.108;2024-01-30T08:13:54;6.15;;;2.55;;
37241;SDS011;23135;51.078;12.108;2024-01-30T08:16:20;7.80;;;3.50;;
37241;SDS011;23135;51.078;12.108;2024-01-30T08:18:46;6.50;;;3.42;;
37241;SDS011;23135;51.078;12.108;2024-01-30T08:21:11;10.85;;;3.72;;
37241;SDS011;23135;51.078;12.108;2024-01-30T08:23:40;11.20;;;3.35;;
37241;SDS011;23135;51.078;12.108;2024-01-30T08:26:07;11.90;;;4.35;;
37241;SDS011;23135;51.078;12.108;2024-01-30T08:28:33;15.65;;;4.85;;
37241;SDS011;23135;51.078;12.108;2024-01-30T08:30:58;8.23;;;4.78;;
37241;SDS011;23135;51.078;12.108;2024-01-30T08:33:24;5.93;;;3.17;;
37241;SDS011;23135;51.078;12.108;2024-01-30T08:35:50;8.43;;;3.42;;
37241;SDS011;23135;51.078;12.108;2024-01-30T08:38:15;10.02;;;4.32;;
37241;SDS011;23135;51.078;12.108;2024-01-30T08:40:41;7.65;;;3.67;;
37241;SDS011;23135;51.078;12.108;2024-01-30T08:43:06;13.52;;;4.43;;
37241;SDS011;23135;51.078;12.108;2024-01-30T08:45:34;8.63;;;3.10;;
37241;SDS011;23135;51.078;12.108;2024-01-30T08:47:59;9.30;;;3.20;;
37241;SDS011;23135;51.078;12.108;2024-01-30T08:50:25;8.60;;;3.22;;
37241;SDS011;23135;51.078;12.108;2024-01-30T08:52:50;7.50;;;3.80;;
37241;SDS011;23135;51.078;12.108;2024-01-30T08:55:16;8.60;;;3.38;;
37241;SDS011;23135;51.078;12.108;2024-01-30T08:57:42;20.05;;;4.75;;
37241;SDS011;23135;51.078;12.108;2024-01-30T09:00:07;9.45;;;4.05;;
37241;SDS011;23135;51.078;12.108;2024-01-30T09:02:35;14.40;;;4.50;;
37241;SDS011;23135;51.078;12.108;2024-01-30T09:05:00;7.90;;;4.03;;
37241;SDS011;23135;51.078;12.108;2024-01-30T09:07:26;11.50;;;3.40;;
37241;SDS011;23135;51.078;12.108;2024-01-30T09:09:52;9.57;;;3.53;;
37241;SDS011;23135;51.078;12.108;2024-01-30T09:12:17;6.05;;;2.72;;
37241;SDS011;23135;51.078;12.108;2024-01-30T09:14:43;7.35;;;3.92;;
37241;SDS011;23135;51.078;12.108;2024-01-30T09:17:08;5.80;;;2.85;;
37241;SDS011;23135;51.078;12.108;2024-01-30T09:19:34;10.07;;;3.35;;
37241;SDS011;23135;51.078;12.108;2024-01-30T09:22:00;6.78;;;3.25;;
37241;SDS011;23135;51.078;12.108;2024-01-30T09:24:26;7.03;;;2.88;;
37241;SDS011;23135;51.078;12.108;2024-01-30T09:26:52;6.75;;;2.85;;
37241;SDS011;23135;51.078;12.108;2024-01-30T09:29:18;8.10;;;3.80;;
37241;SDS011;23135;51.078;12.108;2024-01-30T09:31:44;5.65;;;2.38;;
37241;SDS011;23135;51.078;12.108;2024-01-30T09:34:10;9.82;;;3.28;;
37241;SDS011;23135;51.078;12.108;2024-01-30T09:36:36;7.45;;;2.65;;
37241;SDS011;23135;51.078;12.108;2024-01-30T09:39:01;6.25;;;3.35;;
37241;SDS011;23135;51.078;12.108;2024-01-30T09:41:28;12.23;;;4.03;;
37241;SDS011;23135;51.078;12.108;2024-01-30T09:43:57;8.43;;;4.13;;
37241;SDS011;23135;51.078;12.108;2024-01-30T09:46:23;6.47;;;2.58;;
37241;SDS011;23135;51.078;12.108;2024-01-30T09:48:52;10.32;;;4.20;;
37241;SDS011;23135;51.078;12.108;2024-01-30T09:51:20;7.35;;;3.72;;
37241;SDS011;23135;51.078;12.108;2024-01-30T09:53:47;6.25;;;2.92;;
37241;SDS011;23135;51.078;12.108;2024-01-30T09:56:14;9.60;;;3.45;;
37241;SDS011;23135;51.078;12.108;2024-01-30T09:58:39;6.53;;;2.55;;
37241;SDS011;23135;51.078;12.108;2024-01-30T10:01:05;7.80;;;2.95;;
37241;SDS011;23135;51.078;12.108;2024-01-30T10:03:31;4.63;;;2.63;;
37241;SDS011;23135;51.078;12.108;2024-01-30T10:05:56;5.25;;;3.13;;
37241;SDS011;23135;51.078;12.108;2024-01-30T10:08:23;7.05;;;2.35;;
37241;SDS011;23135;51.078;12.108;2024-01-30T10:10:49;10.55;;;3.08;;
37241;SDS011;23135;51.078;12.108;2024-01-30T10:13:15;8.02;;;3.05;;
37241;SDS011;23135;51.078;12.108;2024-01-30T10:15:41;9.15;;;3.22;;
37241;SDS011;23135;51.078;12.108;2024-01-30T10:18:07;7.57;;;2.97;;
37241;SDS011;23135;51.078;12.108;2024-01-30T10:20:35;10.52;;;3.85;;
37241;SDS011;23135;51.078;12.108;2024-01-30T10:23:00;7.25;;;3.78;;
37241;SDS011;23135;51.078;12.108;2024-01-30T10:25:27;6.72;;;3.40;;
37241;SDS011;23135;51.078;12.108;2024-01-30T10:27:55;5.22;;;2.50;;
37241;SDS011;23135;51.078;12.108;2024-01-30T10:30:21;7.72;;;3.08;;
37241;SDS011;23135;51.078;12.108;2024-01-30T10:32:48;8.82;;;3.50;;
37241;SDS011;23135;51.078;12.108;2024-01-30T10:35:14;5.00;;;2.70;;
37241;SDS011;23135;51.078;12.108;2024-01-30T10:37:41;7.15;;;3.15;;
37241;SDS011;23135;51.078;12.108;2024-01-30T10:40:08;11.10;;;3.17;;
37241;SDS011;23135;51.078;12.108;2024-01-30T10:42:37;10.07;;;3.42;;
37241;SDS011;23135;51.078;12.108;2024-01-30T10:45:14;11.20;;;3.70;;
37241;SDS011;23135;51.078;12.108;2024-01-30T10:47:44;5.95;;;2.70;;
37241;SDS011;23135;51.078;12.108;2024-01-30T10:50:16;9.05;;;4.07;;
37241;SDS011;23135;51.078;12.108;2024-01-30T10:52:42;4.78;;;2.58;;
37241;SDS011;23135;51.078;12.108;2024-01-30T10:55:08;7.55;;;2.58;;
37241;SDS011;23135;51.078;12.108;2024-01-30T10:57:35;6.03;;;2.75;;
37241;SDS011;23135;51.078;12.108;2024-01-30T11:00:05;10.48;;;2.72;;
37241;SDS011;23135;51.078;12.108;2024-01-30T11:02:39;5.13;;;2.50;;
37241;SDS011;23135;51.078;12.108;2024-01-30T11:05:06;4.75;;;2.40;;
37241;SDS011;23135;51.078;12.108;2024-01-30T11:07:33;6.53;;;2.58;;
37241;SDS011;23135;51.078;12.108;2024-01-30T11:10:02;10.05;;;3.55;;
37241;SDS011;23135;51.078;12.108;2024-01-30T11:12:29;5.85;;;2.67;;
37241;SDS011;23135;51.078;12.108;2024-01-30T11:15:02;7.68;;;2.78;;
37241;SDS011;23135;51.078;12.108;2024-01-30T11:17:45;10.25;;;3.45;;
37241;SDS011;23135;51.078;12.108;2024-01-30T11:22:42;6.05;;;2.78;;
37241;SDS011;23135;51.078;12.108;2024-01-30T11:25:13;4.63;;;2.38;;
37241;SDS011;23135;51.078;12.108;2024-01-30T11:27:43;6.00;;;2.40;;
37241;SDS011;23135;51.078;12.108;2024-01-30T11:30:10;6.95;;;3.03;;
37241;SDS011;23135;51.078;12.108;2024-01-30T11:32:45;4.85;;;2.28;;
37241;SDS011;23135;51.078;12.108;2024-01-30T11:35:11;7.90;;;3.25;;
37241;SDS011;23135;51.078;12.108;2024-01-30T11:37:37;7.05;;;2.95;;
37241;SDS011;23135;51.078;12.108;2024-01-30T11:40:05;8.85;;;3.00;;
37241;SDS011;23135;51.078;12.108;2024-01-30T11:42:33;6.88;;;3.20;;
37241;SDS011;23135;51.078;12.108;2024-01-30T11:45:01;9.73;;;3.72;;
37241;SDS011;23135;51.078;12.108;2024-01-30T11:47:28;5.10;;;3.40;;
37241;SDS011;23135;51.078;12.108;2024-01-30T11:49:53;8.00;;;3.58;;
37241;SDS011;23135;51.078;12.108;2024-01-30T11:52:19;5.45;;;3.00;;
37241;SDS011;23135;51.078;12.108;2024-01-30T11:54:45;9.20;;;2.78;;
37241;SDS011;23135;51.078;12.108;2024-01-30T11:57:10;10.57;;;3.22;;
37241;SDS011;23135;51.078;12.108;2024-01-30T11:59:36;9.57;;;3.55;;
37241;SDS011;23135;51.078;12.108;2024-01-30T12:02:01;8.70;;;3.28;;
37241;SDS011;23135;51.078;12.108;2024-01-30T12:04:28;7.53;;;3.53;;
37241;SDS011;23135;51.078;12.108;2024-01-30T12:06:54;6.45;;;3.30;;
37241;SDS011;23135;51.078;12.108;2024-01-30T12:09:20;8.02;;;3.20;;
37241;SDS011;23135;51.078;12.108;2024-01-30T12:11:47;5.00;;;2.85;;
37241;SDS011;23135;51.078;12.108;2024-01-30T12:14:13;11.35;;;4.00;;
37241;SDS011;23135;51.078;12.108;2024-01-30T12:16:40;9.35;;;3.38;;
37241;SDS011;23135;51.078;12.108;2024-01-30T12:19:06;8.23;;;3.13;;
37241;SDS011;23135;51.078;12.108;2024-01-30T12:21:32;10.13;;;4.57;;
37241;SDS011;23135;51.078;12.108;2024-01-30T12:23:59;5.53;;;3.15;;
37241;SDS011;23135;51.078;12.108;2024-01-30T12:26:25;8.15;;;3.72;;
37241;SDS011;23135;51.078;12.108;2024-01-30T12:28:53;8.07;;;4.53;;
37241;SDS011;23135;51.078;12.108;2024-01-30T12:31:25;6.78;;;3.53;;
37241;SDS011;23135;51.078;12.108;2024-01-30T12:33:52;9.40;;;3.55;;
37241;SDS011;23135;51.078;12.108;2024-01-30T12:36:17;9.27;;;5.47;;
37241;SDS011;23135;51.078;12.108;2024-01-30T12:38:43;16.23;;;6.70;;
37241;SDS011;23135;51.078;12.108;2024-01-30T12:41:09;13.63;;;6.57;;
37241;SDS011;23135;51.078;12.108;2024-01-30T12:43:35;28.10;;;12.23;;
37241;SDS011;23135;51.078;12.108;2024-01-30T12:46:01;14.50;;;6.45;;
37241;SDS011;23135;51.078;12.108;2024-01-30T12:48:28;6.70;;;3.28;;
37241;SDS011;23135;51.078;12.108;2024-01-30T12:50:54;6.22;;;3.67;;
37241;SDS011;23135;51.078;12.108;2024-01-30T12:53:21;7.63;;;3.85;;
37241;SDS011;23135;51.078;12.108;2024-01-30T12:55:47;7.30;;;2.85;;
37241;SDS011;23135;51.078;12.108;2024-01-30T12:58:12;7.80;;;2.25;;
37241;SDS011;23135;51.078;12.108;2024-01-30T13:00:38;8.82;;;3.65;;
37241;SDS011;23135;51.078;12.108;2024-01-30T13:03:03;5.97;;;3.20;;
37241;SDS011;23135;51.078;12.108;2024-01-30T13:05:29;5.70;;;2.38;;
37241;SDS011;23135;51.078;12.108;2024-01-30T13:07:55;7.57;;;3.25;;
37241;SDS011;23135;51.078;12.108;2024-01-30T13:10:22;8.93;;;2.88;;
37241;SDS011;23135;51.078;12.108;2024-01-30T13:12:48;6.05;;;2.38;;
37241;SDS011;23135;51.078;12.108;2024-01-30T13:15:13;6.38;;;2.15;;
37241;SDS011;23135;51.078;12.108;2024-01-30T13:17:39;4.85;;;2.40;;
37241;SDS011;23135;51.078;12.108;2024-01-30T13:20:05;6.25;;;2.15;;
37241;SDS011;23135;51.078;12.108;2024-01-30T13:22:33;5.15;;;2.13;;
37241;SDS011;23135;51.078;12.108;2024-01-30T13:24:58;7.47;;;2.10;;
37241;SDS011;23135;51.078;12.108;2024-01-30T13:27:24;3.83;;;2.00;;
37241;SDS011;23135;51.078;12.108;2024-01-30T13:29:50;4.90;;;2.10;;
37241;SDS011;23135;51.078;12.108;2024-01-30T13:32:15;6.90;;;2.05;;
37241;SDS011;23135;51.078;12.108;2024-01-30T13:34:41;8.25;;;2.80;;
37241;SDS011;23135;51.078;12.108;2024-01-30T13:37:08;6.38;;;2.33;;
37241;SDS011;23135;51.078;12.108;2024-01-30T13:39:33;3.53;;;1.60;;
37241;SDS011;23135;51.078;12.108;2024-01-30T13:41:59;5.78;;;2.35;;
37241;SDS011;23135;51.078;12.108;2024-01-30T13:44:24;3.00;;;1.65;;
37241;SDS011;23135;51.078;12.108;2024-01-30T13:46:50;7.53;;;2.15;;
37241;SDS011;23135;51.078;12.108;2024-01-30T13:49:16;8.60;;;2.33;;
37241;SDS011;23135;51.078;12.108;2024-01-30T13:51:41;7.43;;;2.63;;
37241;SDS011;23135;51.078;12.108;2024-01-30T13:54:07;6.32;;;2.15;;
37241;SDS011;23135;51.078;12.108;2024-01-30T13:56:33;7.75;;;2.40;;
37241;SDS011;23135;51.078;12.108;2024-01-30T13:58:59;5.40;;;1.50;;
37241;SDS011;23135;51.078;12.108;2024-01-30T14:01:26;4.47;;;1.83;;
37241;SDS011;23135;51.078;12.108;2024-01-30T14:03:51;4.50;;;1.98;;
37241;SDS011;23135;51.078;12.108;2024-01-30T14:06:17;9.68;;;2.10;;
37241;SDS011;23135;51.078;12.108;2024-01-30T14:08:43;1.98;;;1.55;;
37241;SDS011;23135;51.078;12.108;2024-01-30T14:11:08;3.85;;;2.17;;
37241;SDS011;23135;51.078;12.108;2024-01-30T14:13:34;6.82;;;2.38;;
37241;SDS011;23135;51.078;12.108;2024-01-30T14:16:00;5.60;;;2.55;;
37241;SDS011;23135;51.078;12.108;2024-01-30T14:18:26;3.65;;;1.75;;
37241;SDS011;23135;51.078;12.108;2024-01-30T14:20:51;3.78;;;2.10;;
37241;SDS011;23135;51.078;12.108;2024-01-30T14:23:17;3.60;;;2.05;;
37241;SDS011;23135;51.078;12.108;2024-01-30T14:25:42;3.38;;;2.17;;
37241;SDS011;23135;51.078;12.108;2024-01-30T14:28:08;5.28;;;1.55;;
37241;SDS011;23135;51.078;12.108;2024-01-30T14:30:34;5.78;;;1.60;;